createdAt,value
2022-08-28T00:02:10.752Z,100299.00
2022-08-28T00:04:38.745Z,100302.00
2022-08-28T00:07:07.095Z,100301.00
2022-08-28T00:09:35.586Z,100300.00
2022-08-28T00:12:04.648Z,100307.00
2022-08-28T00:14:32.953Z,100305.00
2022-08-28T00:17:00.975Z,100309.00
2022-08-28T00:19:29.185Z,100307.00
2022-08-28T00:21:57.458Z,100310.00
2022-08-28T00:24:25.328Z,100309.00
2022-08-28T00:27:11.701Z,100306.00
2022-08-28T00:29:39.580Z,100313.00
2022-08-28T00:32:09.055Z,100310.00
2022-08-28T00:34:37.228Z,100307.00
2022-08-28T00:37:05.568Z,100312.00
2022-08-28T00:39:33.552Z,100303.00
2022-08-28T00:42:01.510Z,100310.00
2022-08-28T00:44:29.988Z,100311.00
2022-08-28T00:46:59.715Z,100314.00
2022-08-28T00:49:31.229Z,100320.00
2022-08-28T00:52:08.230Z,100331.00
2022-08-28T00:54:58.833Z,100337.00
2022-08-28T00:57:35.183Z,100325.00
2022-08-28T01:00:05.942Z,100324.00
2022-08-28T01:02:34.383Z,100319.00
2022-08-28T01:05:02.396Z,100324.00
2022-08-28T01:07:30.680Z,100320.00
2022-08-28T01:10:00.071Z,100319.00
2022-08-28T01:12:30.549Z,100322.00
2022-08-28T01:15:00.590Z,100324.00
2022-08-28T01:17:34.330Z,100331.00
2022-08-28T01:20:06.639Z,100330.00
2022-08-28T01:23:12.194Z,100324.00
2022-08-28T01:25:40.994Z,100330.00
2022-08-28T01:28:14.941Z,100325.00
2022-08-28T01:30:45.405Z,100333.00
2022-08-28T01:33:16.220Z,100334.00
2022-08-28T01:35:46.343Z,100340.00
2022-08-28T01:38:19.335Z,100337.00
2022-08-28T01:40:49.966Z,100335.00
2022-08-28T01:43:23.778Z,100323.00
2022-08-28T01:46:02.699Z,100336.00
2022-08-28T01:48:33.324Z,100333.00
2022-08-28T01:51:01.287Z,100335.00
2022-08-28T01:53:32.606Z,100335.00
2022-08-28T01:56:05.943Z,100332.00
2022-08-28T01:58:38.115Z,100334.00
2022-08-28T02:01:11.918Z,100336.00
2022-08-28T02:03:43.446Z,100338.00
2022-08-28T02:06:12.131Z,100335.00
2022-08-28T02:08:40.014Z,100340.00
2022-08-28T02:11:09.359Z,100339.00
2022-08-28T02:13:38.610Z,100342.00
2022-08-28T02:16:07.691Z,100340.00
2022-08-28T02:18:35.787Z,100334.00
2022-08-28T02:21:04.157Z,100340.00
2022-08-28T02:23:32.141Z,100334.00
2022-08-28T02:26:00.151Z,100335.00
2022-08-28T02:28:28.279Z,100334.00
2022-08-28T02:30:56.203Z,100326.00
2022-08-28T02:33:24.048Z,100324.00
2022-08-28T02:35:52.176Z,100340.00
2022-08-28T02:38:20.047Z,100342.00
2022-08-28T02:40:47.918Z,100333.00
2022-08-28T02:43:15.853Z,100345.00
2022-08-28T02:45:43.788Z,100339.00
2022-08-28T02:48:16.983Z,100333.00
2022-08-28T02:50:46.533Z,100332.00
2022-08-28T02:53:14.705Z,100337.00
2022-08-28T02:55:42.556Z,100330.00
2022-08-28T02:58:10.396Z,100324.00
2022-08-28T03:00:39.428Z,100326.00
2022-08-28T03:03:07.537Z,100334.00
2022-08-28T03:05:35.455Z,100331.00
2022-08-28T03:08:03.682Z,100326.00
2022-08-28T03:10:31.630Z,100335.00
2022-08-28T03:13:02.519Z,100334.00
2022-08-28T03:15:38.110Z,100326.00
2022-08-28T03:18:11.227Z,100334.00
2022-08-28T03:20:40.424Z,100337.00
2022-08-28T03:23:26.446Z,100331.00
2022-08-28T03:26:05.109Z,100333.00
2022-08-28T03:28:42.578Z,100336.00
2022-08-28T03:31:14.189Z,100341.00
2022-08-28T03:33:43.011Z,100338.00
2022-08-28T03:36:13.157Z,100341.00
2022-08-28T03:38:42.297Z,100339.00
2022-08-28T03:41:15.305Z,100345.00
2022-08-28T03:43:43.694Z,100355.00
2022-08-28T03:46:16.120Z,100344.00
2022-08-28T03:48:45.053Z,100346.00
2022-08-28T03:51:16.840Z,100336.00
2022-08-28T03:53:45.740Z,100346.00
2022-08-28T03:56:16.728Z,100342.00
2022-08-28T03:58:44.738Z,100350.00
2022-08-28T04:01:12.850Z,100351.00
2022-08-28T04:03:40.894Z,100345.00
2022-08-28T04:06:08.866Z,100351.00
2022-08-28T04:08:36.897Z,100341.00
2022-08-28T04:11:05.487Z,100349.00
2022-08-28T04:13:33.517Z,100346.00
2022-08-28T04:16:11.210Z,100344.00
2022-08-28T04:18:41.917Z,100351.00
2022-08-28T04:21:13.623Z,100351.00
2022-08-28T04:23:45.398Z,100355.00
2022-08-28T04:26:16.086Z,100355.00
2022-08-28T04:28:44.625Z,100353.00
2022-08-28T04:31:13.071Z,100358.00
2022-08-28T04:33:41.207Z,100358.00
2022-08-28T04:36:12.379Z,100359.00
2022-08-28T04:38:43.968Z,100358.00
2022-08-28T04:41:13.857Z,100363.00
2022-08-28T04:43:42.427Z,100363.00
2022-08-28T04:46:13.039Z,100363.00
2022-08-28T04:48:42.109Z,100362.00
2022-08-28T04:51:11.840Z,100365.00
2022-08-28T04:53:40.456Z,100360.00
2022-08-28T04:56:11.120Z,100358.00
2022-08-28T04:58:40.133Z,100364.00
2022-08-28T05:01:11.408Z,100365.00
2022-08-28T05:03:40.155Z,100360.00
2022-08-28T05:06:08.601Z,100366.00
2022-08-28T05:08:36.770Z,100363.00
2022-08-28T05:11:32.745Z,100367.00
2022-08-28T05:14:12.647Z,100366.00
2022-08-28T05:16:51.698Z,100370.00
2022-08-28T05:19:21.089Z,100371.00
2022-08-28T05:21:49.196Z,100367.00
2022-08-28T05:24:17.545Z,100368.00
2022-08-28T05:26:48.272Z,100372.00
2022-08-28T05:29:17.023Z,100375.00
2022-08-28T05:31:46.405Z,100382.00
2022-08-28T05:34:15.437Z,100391.00
2022-08-28T05:36:44.285Z,100385.00
2022-08-28T05:39:13.090Z,100381.00
2022-08-28T05:41:44.005Z,100381.00
2022-08-28T05:44:14.165Z,100383.00
2022-08-28T05:46:44.510Z,100388.00
2022-08-28T05:49:16.305Z,100380.00
2022-08-28T05:51:44.415Z,100384.00
2022-08-28T05:54:12.651Z,100395.00
2022-08-28T05:56:41.238Z,100381.00
2022-08-28T05:59:09.803Z,100380.00
2022-08-28T06:01:44.229Z,100387.00
2022-08-28T06:04:26.027Z,100392.00
2022-08-28T06:06:54.166Z,100390.00
2022-08-28T06:09:29.601Z,100395.00
2022-08-28T06:11:59.633Z,100401.00
2022-08-28T06:14:27.897Z,100401.00
2022-08-28T06:16:57.490Z,100402.00
2022-08-28T06:19:27.714Z,100403.00
2022-08-28T06:21:57.393Z,100405.00
2022-08-28T06:24:26.502Z,100403.00
2022-08-28T06:26:54.636Z,100411.00
2022-08-28T06:29:27.724Z,100411.00
2022-08-28T06:31:58.639Z,100413.00
2022-08-28T06:34:27.419Z,100408.00
2022-08-28T06:36:55.509Z,100421.00
2022-08-28T06:39:23.981Z,100419.00
2022-08-28T06:41:51.979Z,100420.00
2022-08-28T06:44:21.624Z,100418.00
2022-08-28T06:46:53.079Z,100428.00
2022-08-28T06:49:21.543Z,100422.00
2022-08-28T06:51:49.650Z,100426.00
2022-08-28T06:54:22.812Z,100430.00
2022-08-28T06:56:52.099Z,100428.00
2022-08-28T06:59:20.031Z,100429.00
2022-08-28T07:01:47.999Z,100435.00
2022-08-28T07:04:16.985Z,100431.00
2022-08-28T07:06:47.048Z,100434.00
2022-08-28T07:09:15.405Z,100439.00
2022-08-28T07:11:46.863Z,100440.00
2022-08-28T07:14:14.887Z,100434.00
2022-08-28T07:16:44.707Z,100439.00
2022-08-28T07:19:13.051Z,100437.00
2022-08-28T07:21:43.824Z,100431.00
2022-08-28T07:24:14.881Z,100435.00
2022-08-28T07:26:44.120Z,100431.00
2022-08-28T07:29:12.595Z,100435.00
2022-08-28T07:31:45.954Z,100435.00
2022-08-28T07:34:14.527Z,100438.00
2022-08-28T07:36:43.325Z,100442.00
2022-08-28T07:39:12.861Z,100438.00
2022-08-28T07:41:43.109Z,100440.00
2022-08-28T07:44:33.105Z,100436.00
2022-08-28T07:47:04.498Z,100441.00
2022-08-28T07:49:34.013Z,100446.00
2022-08-28T07:52:02.351Z,100447.00
2022-08-28T07:54:30.235Z,100451.00
2022-08-28T07:56:58.352Z,100446.00
2022-08-28T07:59:26.351Z,100456.00
2022-08-28T08:01:54.224Z,100458.00
2022-08-28T08:04:23.748Z,100453.00
2022-08-28T08:06:58.150Z,100457.00
2022-08-28T08:09:27.245Z,100450.00
2022-08-28T08:11:57.651Z,100460.00
2022-08-28T08:14:25.681Z,100452.00
2022-08-28T08:16:53.900Z,100464.00
2022-08-28T08:19:22.425Z,100461.00
2022-08-28T08:21:54.622Z,100458.00
2022-08-28T08:24:27.200Z,100459.00
2022-08-28T08:27:02.263Z,100457.00
2022-08-28T08:29:33.522Z,100459.00
2022-08-28T08:32:06.389Z,100461.00
2022-08-28T08:34:56.181Z,100454.00
2022-08-28T08:37:24.256Z,100458.00
2022-08-28T08:39:53.821Z,100458.00
2022-08-28T08:42:31.766Z,100456.00
2022-08-28T08:45:04.441Z,100461.00
2022-08-28T08:47:49.061Z,100459.00
2022-08-28T08:50:32.864Z,100459.00
2022-08-28T08:53:12.505Z,100461.00
2022-08-28T08:55:47.188Z,100463.00
2022-08-28T08:58:26.030Z,100465.00
2022-08-28T09:01:14.230Z,100465.00
2022-08-28T09:04:06.399Z,100475.00
2022-08-28T09:06:42.817Z,100471.00
2022-08-28T09:09:33.800Z,100471.00
2022-08-28T09:12:06.809Z,100473.00
2022-08-28T09:14:42.890Z,100469.00
2022-08-28T09:17:12.201Z,100470.00
2022-08-28T09:19:40.084Z,100470.00
2022-08-28T09:22:08.001Z,100474.00
2022-08-28T09:24:37.131Z,100474.00
2022-08-28T09:27:28.010Z,100477.00
2022-08-28T09:30:07.676Z,100479.00
2022-08-28T09:32:44.340Z,100474.00
2022-08-28T09:35:29.217Z,100478.00
2022-08-28T09:38:17.375Z,100472.00
2022-08-28T09:41:03.846Z,100470.00
2022-08-28T09:43:33.772Z,100472.00
2022-08-28T09:46:04.511Z,100474.00
2022-08-28T09:48:41.476Z,100476.00
2022-08-28T09:51:15.183Z,100470.00
2022-08-28T09:54:05.858Z,100468.00
2022-08-28T09:56:36.178Z,100480.00
2022-08-28T09:59:10.529Z,100474.00
2022-08-28T10:01:49.316Z,100463.00
2022-08-28T10:04:35.909Z,100468.00
2022-08-28T10:07:15.863Z,100465.00
2022-08-28T10:09:59.025Z,100472.00
2022-08-28T10:12:48.789Z,100472.00
2022-08-28T10:15:31.770Z,100476.00
2022-08-28T10:18:18.180Z,100474.00
2022-08-28T10:20:50.006Z,100474.00
2022-08-28T10:23:24.955Z,100465.00
2022-08-28T10:26:14.007Z,100472.00
2022-08-28T10:28:57.307Z,100471.00
2022-08-28T10:31:59.710Z,100475.00
2022-08-28T10:34:52.368Z,100469.00
2022-08-28T10:37:29.371Z,100473.00
2022-08-28T10:40:05.693Z,100474.00
2022-08-28T10:42:36.977Z,100476.00
2022-08-28T10:45:10.292Z,100460.00
2022-08-28T10:47:42.264Z,100463.00
2022-08-28T10:50:18.302Z,100460.00
2022-08-28T10:52:49.554Z,100457.00
2022-08-28T10:55:22.341Z,100468.00
2022-08-28T10:58:24.285Z,100463.00
2022-08-28T11:01:06.584Z,100461.00
2022-08-28T11:03:44.712Z,100455.00
2022-08-28T11:06:29.798Z,100461.00
2022-08-28T11:09:00.470Z,100466.00
2022-08-28T11:11:46.578Z,100458.00
2022-08-28T11:14:28.437Z,100457.00
2022-08-28T11:16:59.840Z,100472.00
2022-08-28T11:20:05.980Z,100463.00
2022-08-28T11:22:47.827Z,100460.00
2022-08-28T11:25:40.206Z,100461.00
2022-08-28T11:28:43.000Z,100467.00
2022-08-28T11:31:19.088Z,100463.00
2022-08-28T11:33:59.627Z,100463.00
2022-08-28T11:36:29.466Z,100466.00
2022-08-28T11:38:57.936Z,100458.00
2022-08-28T11:41:36.771Z,100471.00
2022-08-28T11:44:13.462Z,100466.00
2022-08-28T11:46:46.784Z,100464.00
2022-08-28T11:49:38.307Z,100464.00
2022-08-28T11:52:21.456Z,100464.00
2022-08-28T11:55:14.202Z,100463.00
2022-08-28T11:57:45.103Z,100465.00
2022-08-28T12:00:25.765Z,100458.00
2022-08-28T12:03:09.163Z,100458.00
2022-08-28T12:05:40.776Z,100460.00
2022-08-28T12:08:10.912Z,100452.00
2022-08-28T12:10:38.709Z,100457.00
2022-08-28T12:13:10.404Z,100448.00
2022-08-28T12:15:41.056Z,100449.00
2022-08-28T12:18:12.196Z,100448.00
2022-08-28T12:20:58.050Z,100445.00
2022-08-28T12:23:32.977Z,100447.00
2022-08-28T12:26:16.480Z,100446.00
2022-08-28T12:28:56.134Z,100449.00
2022-08-28T12:32:01.580Z,100442.00
2022-08-28T12:35:01.153Z,100444.00
2022-08-28T12:37:39.688Z,100443.00
2022-08-28T12:40:53.556Z,100443.00
2022-08-28T12:43:28.841Z,100441.00
2022-08-28T12:46:19.347Z,100445.00
2022-08-28T12:48:59.649Z,100432.00
2022-08-28T12:51:30.827Z,100447.00
2022-08-28T12:54:01.061Z,100436.00
2022-08-28T12:56:30.492Z,100447.00
2022-08-28T12:59:38.151Z,100448.00
2022-08-28T13:02:13.463Z,100454.00
2022-08-28T13:04:46.075Z,100451.00
2022-08-28T13:07:16.281Z,100438.00
2022-08-28T13:09:53.114Z,100427.00
2022-08-28T13:12:54.654Z,100432.00
2022-08-28T13:15:42.661Z,100432.00
2022-08-28T13:18:11.252Z,100433.00
2022-08-28T13:20:39.938Z,100429.00
2022-08-28T13:23:08.082Z,100433.00
2022-08-28T13:25:37.529Z,100421.00
2022-08-28T13:28:14.163Z,100422.00
2022-08-28T13:30:42.860Z,100424.00
2022-08-28T13:33:26.256Z,100427.00
2022-08-28T13:35:55.432Z,100426.00
2022-08-28T13:38:25.204Z,100428.00
2022-08-28T13:40:59.823Z,100425.00
2022-08-28T13:43:30.684Z,100423.00
2022-08-28T13:45:58.634Z,100431.00
2022-08-28T13:48:27.925Z,100423.00
2022-08-28T13:51:03.550Z,100430.00
2022-08-28T13:53:33.213Z,100424.00
2022-08-28T13:56:01.665Z,100419.00
2022-08-28T13:58:32.727Z,100428.00
2022-08-28T14:01:00.795Z,100427.00
2022-08-28T14:03:39.198Z,100427.00
2022-08-28T14:06:14.431Z,100424.00
2022-08-28T14:08:43.991Z,100418.00
2022-08-28T14:11:13.321Z,100419.00
2022-08-28T14:13:47.012Z,100415.00
2022-08-28T14:16:24.904Z,100418.00
2022-08-28T14:18:53.384Z,100420.00
2022-08-28T14:21:22.049Z,100420.00
2022-08-28T14:23:50.664Z,100408.00
2022-08-28T14:26:18.583Z,100415.00
2022-08-28T14:28:46.743Z,100416.00
2022-08-28T14:31:15.034Z,100415.00
2022-08-28T14:33:45.370Z,100407.00
2022-08-28T14:36:18.534Z,100411.00
2022-08-28T14:38:46.588Z,100415.00
2022-08-28T14:41:15.440Z,100415.00
2022-08-28T14:43:44.012Z,100405.00
2022-08-28T14:46:20.727Z,100406.00
2022-08-28T14:48:49.223Z,100404.00
2022-08-28T14:51:18.319Z,100406.00
2022-08-28T14:53:46.337Z,100399.00
2022-08-28T14:56:14.709Z,100411.00
2022-08-28T14:58:43.081Z,100411.00
2022-08-28T15:01:11.385Z,100416.00
2022-08-28T15:03:39.238Z,100405.00
2022-08-28T15:06:08.808Z,100408.00
2022-08-28T15:08:37.549Z,100410.00
2022-08-28T15:11:18.721Z,100417.00
2022-08-28T15:13:48.140Z,100410.00
2022-08-28T15:16:26.662Z,100411.00
2022-08-28T15:18:58.397Z,100412.00
2022-08-28T15:21:40.613Z,100411.00
2022-08-28T15:24:10.025Z,100409.00
2022-08-28T15:26:40.286Z,100397.00
2022-08-28T15:29:08.179Z,100410.00
2022-08-28T15:31:39.588Z,100406.00
2022-08-28T15:34:09.887Z,100406.00
2022-08-28T15:36:45.185Z,100401.00
2022-08-28T15:39:42.589Z,100403.00
2022-08-28T15:42:11.637Z,100403.00
2022-08-28T15:44:39.613Z,100407.00
2022-08-28T15:47:08.114Z,100406.00
2022-08-28T15:49:43.375Z,100408.00
2022-08-28T15:52:14.746Z,100403.00
2022-08-28T15:54:42.779Z,100412.00
2022-08-28T15:57:10.765Z,100411.00
2022-08-28T15:59:48.778Z,100420.00
2022-08-28T16:02:20.434Z,100413.00
2022-08-28T16:04:48.778Z,100417.00
2022-08-28T16:07:17.533Z,100409.00
2022-08-28T16:09:45.547Z,100414.00
2022-08-28T16:12:14.336Z,100421.00
2022-08-28T16:14:42.502Z,100419.00
2022-08-28T16:17:11.445Z,100423.00
2022-08-28T16:19:40.685Z,100421.00
2022-08-28T16:22:10.108Z,100418.00
2022-08-28T16:24:38.494Z,100421.00
2022-08-28T16:27:15.345Z,100425.00
2022-08-28T16:29:59.897Z,100427.00
2022-08-28T16:32:27.772Z,100425.00
2022-08-28T16:34:55.613Z,100430.00
2022-08-28T16:37:23.588Z,100432.00
2022-08-28T16:39:56.858Z,100434.00
2022-08-28T16:42:32.215Z,100431.00
2022-08-28T16:45:00.719Z,100437.00
2022-08-28T16:47:31.780Z,100434.00
2022-08-28T16:50:02.128Z,100429.00
2022-08-28T16:52:30.229Z,100438.00
2022-08-28T16:55:00.079Z,100431.00
2022-08-28T16:57:28.327Z,100437.00
2022-08-28T16:59:56.332Z,100433.00
2022-08-28T17:02:26.349Z,100437.00
2022-08-28T17:04:54.969Z,100432.00
2022-08-28T17:07:23.058Z,100438.00
2022-08-28T17:09:50.844Z,100426.00
2022-08-28T17:12:18.740Z,100434.00
2022-08-28T17:14:46.714Z,100437.00
2022-08-28T17:17:14.538Z,100441.00
2022-08-28T17:19:42.503Z,100437.00
2022-08-28T17:22:29.193Z,100441.00
2022-08-28T17:24:59.014Z,100438.00
2022-08-28T17:27:27.755Z,100438.00
2022-08-28T17:29:55.868Z,100449.00
2022-08-28T17:32:23.810Z,100448.00
2022-08-28T17:34:51.601Z,100440.00
2022-08-28T17:37:21.008Z,100450.00
2022-08-28T17:39:49.130Z,100446.00
2022-08-28T17:42:16.915Z,100446.00
2022-08-28T17:44:44.896Z,100448.00
2022-08-28T17:47:12.853Z,100446.00
2022-08-28T17:49:40.841Z,100450.00
2022-08-28T17:52:08.713Z,100452.00
2022-08-28T17:54:36.970Z,100452.00
2022-08-28T17:57:05.087Z,100461.00
2022-08-28T17:59:42.898Z,100463.00
2022-08-28T18:02:11.233Z,100466.00
2022-08-28T18:04:39.315Z,100466.00
2022-08-28T18:07:07.114Z,100467.00
2022-08-28T18:09:35.331Z,100470.00
2022-08-28T18:12:03.746Z,100471.00
2022-08-28T18:14:31.579Z,100476.00
2022-08-28T18:16:59.446Z,100487.00
2022-08-28T18:19:27.461Z,100485.00
2022-08-28T18:21:55.739Z,100484.00
2022-08-28T18:24:23.675Z,100486.00
2022-08-28T18:26:52.905Z,100492.00
2022-08-28T18:29:20.767Z,100494.00
2022-08-28T18:31:49.764Z,100496.00
2022-08-28T18:34:17.733Z,100501.00
2022-08-28T18:36:46.133Z,100501.00
2022-08-28T18:39:13.980Z,100508.00
2022-08-28T18:41:46.949Z,100504.00
2022-08-28T18:44:15.595Z,100515.00
2022-08-28T18:46:45.273Z,100509.00
2022-08-28T18:49:13.506Z,100510.00
2022-08-28T18:51:43.591Z,100516.00
2022-08-28T18:54:13.368Z,100523.00
2022-08-28T18:56:41.291Z,100528.00
2022-08-28T18:59:09.241Z,100531.00
2022-08-28T19:01:37.368Z,100530.00
2022-08-28T19:04:06.695Z,100532.00
2022-08-28T19:06:35.347Z,100546.00
2022-08-28T19:09:05.471Z,100538.00
2022-08-28T19:11:33.829Z,100547.00
2022-08-28T19:14:03.845Z,100546.00
2022-08-28T19:16:32.470Z,100557.00
2022-08-28T19:19:01.868Z,100555.00
2022-08-28T19:21:30.295Z,100553.00
2022-08-28T19:23:59.183Z,100553.00
2022-08-28T19:26:27.695Z,100563.00
2022-08-28T19:28:56.052Z,100556.00
2022-08-28T19:31:25.232Z,100562.00
2022-08-28T19:33:53.169Z,100569.00
2022-08-28T19:36:21.569Z,100558.00
2022-08-28T19:38:49.925Z,100562.00
2022-08-28T19:41:20.692Z,100560.00
2022-08-28T19:43:49.473Z,100570.00
2022-08-28T19:46:19.820Z,100567.00
2022-08-28T19:48:50.676Z,100570.00
2022-08-28T19:51:23.441Z,100572.00
2022-08-28T19:53:58.932Z,100577.00
2022-08-28T19:56:31.787Z,100581.00
2022-08-28T19:59:01.652Z,100586.00
2022-08-28T20:01:33.018Z,100588.00
2022-08-28T20:04:01.503Z,100594.00
2022-08-28T20:06:31.979Z,100603.00
2022-08-28T20:09:01.038Z,100603.00
2022-08-28T20:11:30.817Z,100606.00
2022-08-28T20:14:04.638Z,100608.00
2022-08-28T20:16:36.156Z,100602.00
2022-08-28T20:19:05.057Z,100605.00
2022-08-28T20:21:37.067Z,100606.00
2022-08-28T20:24:12.099Z,100606.00
2022-08-28T20:26:40.185Z,100610.00
2022-08-28T20:29:09.601Z,100606.00
2022-08-28T20:31:43.181Z,100610.00
2022-08-28T20:34:12.494Z,100616.00
2022-08-28T20:36:40.467Z,100613.00
2022-08-28T20:39:09.560Z,100614.00
2022-08-28T20:41:39.832Z,100627.00
2022-08-28T20:44:10.934Z,100625.00
2022-08-28T20:46:41.626Z,100632.00
2022-08-28T20:49:13.749Z,100627.00
2022-08-28T20:52:01.197Z,100634.00
2022-08-28T20:54:41.777Z,100636.00
2022-08-28T20:57:12.108Z,100630.00
2022-08-28T20:59:42.091Z,100645.00
2022-08-28T21:02:17.711Z,100647.00
2022-08-28T21:04:46.831Z,100640.00
2022-08-28T21:07:16.305Z,100645.00
2022-08-28T21:10:05.720Z,100642.00
2022-08-28T21:12:32.358Z,100647.00
2022-08-28T21:15:00.502Z,100643.00
2022-08-28T21:17:28.870Z,100643.00
2022-08-28T21:20:10.312Z,100638.00
2022-08-28T21:22:38.670Z,100641.00
2022-08-28T21:25:09.088Z,100636.00
2022-08-28T21:27:39.926Z,100642.00
2022-08-28T21:30:08.819Z,100636.00
2022-08-28T21:32:37.172Z,100641.00
2022-08-28T21:35:06.934Z,100641.00
2022-08-28T21:37:35.474Z,100640.00
2022-08-28T21:40:06.854Z,100633.00
2022-08-28T21:42:34.944Z,100640.00
2022-08-28T21:45:02.880Z,100626.00
2022-08-28T21:47:31.581Z,100637.00
2022-08-28T21:49:59.805Z,100632.00
2022-08-28T21:52:30.787Z,100634.00
2022-08-28T21:55:05.379Z,100635.00
2022-08-28T21:57:33.379Z,100636.00
2022-08-28T22:00:01.172Z,100638.00
2022-08-28T22:02:29.095Z,100634.00
2022-08-28T22:04:57.234Z,100638.00
2022-08-28T22:07:25.889Z,100638.00
2022-08-28T22:09:53.641Z,100642.00
2022-08-28T22:12:21.526Z,100650.00
2022-08-28T22:14:49.284Z,100644.00
2022-08-28T22:17:19.754Z,100643.00
2022-08-28T22:19:47.589Z,100649.00
2022-08-28T22:22:34.757Z,100646.00
2022-08-28T22:25:02.554Z,100655.00
2022-08-28T22:27:32.111Z,100649.00
2022-08-28T22:30:00.286Z,100646.00
2022-08-28T22:32:28.272Z,100652.00
2022-08-28T22:34:56.268Z,100651.00
2022-08-28T22:37:25.962Z,100649.00
2022-08-28T22:39:54.029Z,100654.00
2022-08-28T22:42:21.902Z,100654.00
2022-08-28T22:44:49.898Z,100645.00
2022-08-28T22:47:18.996Z,100655.00
2022-08-28T22:49:47.413Z,100659.00
2022-08-28T22:52:15.708Z,100663.00
2022-08-28T22:54:43.594Z,100663.00
2022-08-28T22:57:11.850Z,100662.00
2022-08-28T22:59:39.879Z,100662.00
2022-08-28T23:02:08.079Z,100665.00
2022-08-28T23:04:36.121Z,100659.00
2022-08-28T23:07:05.058Z,100655.00
2022-08-28T23:09:33.124Z,100655.00
2022-08-28T23:12:07.814Z,100661.00
2022-08-28T23:14:35.856Z,100661.00
2022-08-28T23:17:03.814Z,100655.00
2022-08-28T23:19:32.457Z,100658.00
2022-08-28T23:22:00.714Z,100664.00
2022-08-28T23:24:28.662Z,100654.00
2022-08-28T23:26:56.709Z,100662.00
2022-08-28T23:29:24.761Z,100665.00
2022-08-28T23:31:52.755Z,100669.00
2022-08-28T23:34:20.767Z,100666.00
2022-08-28T23:36:48.714Z,100661.00
2022-08-28T23:39:16.625Z,100655.00
2022-08-28T23:41:44.739Z,100655.00
2022-08-28T23:44:12.743Z,100652.00
2022-08-28T23:46:41.443Z,100647.00
2022-08-28T23:49:11.047Z,100649.00
2022-08-28T23:51:39.835Z,100650.00
2022-08-28T23:54:09.185Z,100650.00
2022-08-28T23:56:37.035Z,100639.00
2022-08-28T23:59:05.738Z,100645.00
